Time;durP1;ratioP1;P1;durP2;ratioP2;P2;SDS_P1;SDS_P2;PMS_P1;PMS_P2;Temp;Humidity;BMP_temperature;BMP_pressure;BME280_temperature;BME280_humidity;BME280_pressure;Samples;Min_cycle;Max_cycle;Signal;HPM_P1;HPM_P2
2022/01/05 00:00:08;;;;;;;0.40;0.40;;;5.00;99.90;;;;;;5072880;28;20196;-68
2022/01/05 00:02:35;;;;;;;0.30;0.30;;;5.10;99.90;;;;;;5073181;28;20221;-67
2022/01/05 00:05:01;;;;;;;0.35;0.35;;;5.20;99.90;;;;;;5073038;28;20656;-68
2022/01/05 00:07:27;;;;;;;0.40;0.40;;;5.20;99.80;;;;;;5072848;28;20699;-68
2022/01/05 00:09:52;;;;;;;0.33;0.33;;;5.20;99.60;;;;;;5072803;28;20268;-67
2022/01/05 00:12:18;;;;;;;0.30;0.30;;;5.30;99.60;;;;;;5072943;28;20184;-68
2022/01/05 00:14:44;;;;;;;0.40;0.40;;;5.30;99.60;;;;;;5072847;28;20197;-67
2022/01/05 00:17:09;;;;;;;0.40;0.40;;;5.30;99.50;;;;;;5072891;28;20683;-68
2022/01/05 00:19:36;;;;;;;0.40;0.40;;;5.30;99.30;;;;;;5072656;28;20172;-68
2022/01/05 00:22:02;;;;;;;0.40;0.40;;;5.10;99.20;;;;;;5072946;28;20162;-67
2022/01/05 00:24:28;;;;;;;0.30;0.30;;;5.10;99.50;;;;;;5072760;28;20260;-68
2022/01/05 00:26:54;;;;;;;0.40;0.40;;;5.20;99.50;;;;;;5072888;28;20201;-68
2022/01/05 00:29:20;;;;;;;0.33;0.33;;;5.20;99.50;;;;;;5073852;28;20177;-68
2022/01/05 00:31:45;;;;;;;0.40;0.40;;;5.10;99.50;;;;;;5076554;28;20227;-68
2022/01/05 00:34:11;;;;;;;0.40;0.40;;;5.10;99.50;;;;;;5076580;28;20407;-68
2022/01/05 00:36:37;;;;;;;0.40;0.40;;;5.00;99.40;;;;;;5076147;28;20196;-67
2022/01/05 00:39:03;;;;;;;0.37;0.37;;;4.80;99.60;;;;;;5076117;28;20169;-68
2022/01/05 00:41:29;;;;;;;0.40;0.40;;;4.80;99.90;;;;;;5076241;28;20259;-68
2022/01/05 00:43:54;;;;;;;0.30;0.30;;;4.90;99.90;;;;;;5076252;28;20245;-67
2022/01/05 00:46:20;;;;;;;0.40;0.40;;;5.00;99.90;;;;;;5076240;28;20196;-67
2022/01/05 00:48:46;;;;;;;0.30;0.30;;;5.00;99.80;;;;;;5076055;28;20177;-68
2022/01/05 00:51:12;;;;;;;0.37;0.37;;;5.10;99.80;;;;;;5076176;28;20248;-67
2022/01/05 00:53:39;;;;;;;0.30;0.30;;;5.20;99.70;;;;;;5076020;28;20200;-67
2022/01/05 00:56:04;;;;;;;0.40;0.40;;;5.20;99.60;;;;;;5075999;28;20608;-67
2022/01/05 00:58:30;;;;;;;0.40;0.40;;;5.20;99.60;;;;;;5075657;28;20181;-68
2022/01/05 01:00:56;;;;;;;0.40;0.40;;;5.30;99.60;;;;;;5076005;28;20403;-68
2022/01/05 01:03:22;;;;;;;0.30;0.30;;;5.30;99.40;;;;;;5075969;28;20162;-67
2022/01/05 01:05:48;;;;;;;0.30;0.30;;;5.10;99.20;;;;;;5075711;28;20485;-68
2022/01/05 01:08:13;;;;;;;0.33;0.33;;;5.00;99.40;;;;;;5075759;28;20642;-68
2022/01/05 01:10:39;;;;;;;0.40;0.40;;;4.80;99.70;;;;;;5075895;28;20694;-68
2022/01/05 01:13:05;;;;;;;0.30;0.30;;;4.70;99.80;;;;;;5075960;28;20166;-67
2022/01/05 01:15:31;;;;;;;0.35;0.35;;;4.60;99.90;;;;;;5075533;28;20190;-67
2022/01/05 01:17:57;;;;;;;0.30;0.30;;;4.50;99.90;;;;;;5075279;28;20197;-68
2022/01/05 01:20:22;;;;;;;0.40;0.40;;;4.30;99.90;;;;;;5075644;28;20188;-67
2022/01/05 01:22:50;;;;;;;0.30;0.30;;;4.50;99.90;;;;;;5075431;28;20530;-68
2022/01/05 01:25:16;;;;;;;0.40;0.40;;;4.30;99.90;;;;;;5075202;28;20222;-68
2022/01/05 01:27:43;;;;;;;0.40;0.40;;;4.20;99.90;;;;;;5075413;28;20177;-67
2022/01/05 01:30:10;;;;;;;0.30;0.30;;;4.40;99.90;;;;;;5075189;28;20191;-68
2022/01/05 01:32:37;;;;;;;0.40;0.40;;;4.50;99.90;;;;;;5075403;28;20174;-67
2022/01/05 01:35:04;;;;;;;0.30;0.30;;;4.70;99.90;;;;;;5075100;28;20197;-68
2022/01/05 01:37:30;;;;;;;0.32;0.32;;;4.70;99.90;;;;;;5075222;28;20197;-67
2022/01/05 01:39:56;;;;;;;0.40;0.40;;;4.70;99.90;;;;;;5075064;28;20252;-67
2022/01/05 01:42:22;;;;;;;0.30;0.30;;;4.70;99.90;;;;;;5074683;28;20176;-68
2022/01/05 01:44:47;;;;;;;0.40;0.40;;;4.80;99.90;;;;;;5075102;28;20431;-67
2022/01/05 01:47:14;;;;;;;0.33;0.33;;;4.50;99.90;;;;;;5074920;28;20227;-68
2022/01/05 01:49:40;;;;;;;0.30;0.30;;;4.60;99.90;;;;;;5074728;28;20182;-67
2022/01/05 01:52:06;;;;;;;0.40;0.40;;;4.50;99.90;;;;;;5075252;28;20178;-68
2022/01/05 01:54:35;;;;;;;0.30;0.30;;;4.20;99.90;;;;;;5074885;28;20523;-67
2022/01/05 01:57:01;;;;;;;0.40;0.40;;;4.00;99.90;;;;;;5074649;28;20272;-68
2022/01/05 01:59:27;;;;;;;0.30;0.30;;;4.20;99.90;;;;;;5074414;28;20189;-68
2022/01/05 02:01:54;;;;;;;0.30;0.30;;;4.40;99.90;;;;;;5074520;28;20177;-67
2022/01/05 02:04:20;;;;;;;0.38;0.38;;;4.00;99.90;;;;;;5074584;28;20214;-67
2022/01/05 02:06:45;;;;;;;0.40;0.40;;;3.90;99.90;;;;;;5074462;28;20675;-68
2022/01/05 02:09:11;;;;;;;0.30;0.30;;;4.20;99.90;;;;;;5074623;28;20172;-67
2022/01/05 02:11:38;;;;;;;0.40;0.40;;;4.20;99.90;;;;;;5074664;28;20165;-67
2022/01/05 02:14:04;;;;;;;0.30;0.30;;;4.30;99.90;;;;;;5074612;28;20176;-67
2022/01/05 02:16:32;;;;;;;0.40;0.40;;;4.20;99.90;;;;;;5074065;28;20550;-68
2022/01/05 02:18:59;;;;;;;0.40;0.40;;;4.10;99.90;;;;;;5074453;28;20192;-67
2022/01/05 02:21:26;;;;;;;0.40;0.40;;;3.90;99.90;;;;;;5074292;28;20639;-67
2022/01/05 02:23:51;;;;;;;0.40;0.40;;;3.70;99.90;;;;;;5074406;28;20180;-68
2022/01/05 02:26:17;;;;;;;0.40;0.40;;;3.70;99.90;;;;;;5074104;28;20198;-68
2022/01/05 02:28:44;;;;;;;0.30;0.30;;;3.90;99.90;;;;;;5074115;28;20607;-68
2022/01/05 02:31:09;;;;;;;0.30;0.30;;;3.90;99.90;;;;;;5074233;28;20495;-67
2022/01/05 02:33:37;;;;;;;0.30;0.30;;;3.90;99.90;;;;;;5073277;28;20252;-68
2022/01/05 02:36:04;;;;;;;0.30;0.30;;;3.90;99.90;;;;;;5072350;28;20685;-68
2022/01/05 02:38:30;;;;;;;0.40;0.40;;;3.80;99.90;;;;;;5073867;28;20173;-68
2022/01/05 02:40:56;;;;;;;0.40;0.40;;;3.90;99.90;;;;;;5074008;28;20173;-67
2022/01/05 02:43:21;;;;;;;0.30;0.30;;;3.90;99.90;;;;;;5073617;28;20433;-68
2022/01/05 02:45:48;;;;;;;0.30;0.30;;;4.30;99.90;;;;;;5073731;28;20193;-67
2022/01/05 02:48:14;;;;;;;0.35;0.35;;;4.00;99.90;;;;;;5073745;28;20177;-67
2022/01/05 02:50:39;;;;;;;0.32;0.32;;;4.40;99.90;;;;;;5073492;28;20170;-67
2022/01/05 02:53:05;;;;;;;0.30;0.30;;;3.90;99.90;;;;;;5072403;28;20180;-67
2022/01/05 02:55:31;;;;;;;0.40;0.40;;;4.10;99.90;;;;;;5073621;28;20193;-67
2022/01/05 02:57:56;;;;;;;0.30;0.30;;;4.00;99.90;;;;;;5073357;28;20226;-68
2022/01/05 03:00:22;;;;;;;0.30;0.30;;;4.10;99.90;;;;;;5074103;28;20188;-67
2022/01/05 03:02:48;;;;;;;0.40;0.40;;;4.20;99.90;;;;;;5073692;28;20170;-67
2022/01/05 03:05:13;;;;;;;0.40;0.40;;;4.20;99.90;;;;;;5073375;28;20185;-67
2022/01/05 03:07:39;;;;;;;0.40;0.40;;;4.20;99.90;;;;;;5072348;28;20208;-67
2022/01/05 03:10:10;;;;;;;0.30;0.30;;;4.10;99.90;;;;;;5073290;28;20248;-68
2022/01/05 03:12:38;;;;;;;0.30;0.30;;;4.10;99.90;;;;;;5073614;28;20181;-67
2022/01/05 03:15:05;;;;;;;0.30;0.30;;;4.20;99.90;;;;;;5073593;28;20246;-68
2022/01/05 03:17:30;;;;;;;0.40;0.40;;;4.20;99.90;;;;;;5073236;28;20197;-67
2022/01/05 03:19:56;;;;;;;0.40;0.40;;;4.20;99.90;;;;;;5073263;28;20170;-68
2022/01/05 03:22:22;;;;;;;0.30;0.30;;;4.10;99.90;;;;;;5073773;28;20161;-67
2022/01/05 03:24:48;;;;;;;0.40;0.40;;;4.10;99.90;;;;;;5073227;28;20530;-68
2022/01/05 03:27:13;;;;;;;0.40;0.40;;;4.10;99.90;;;;;;5073280;28;20640;-68
2022/01/05 03:29:39;;;;;;;0.40;0.40;;;4.10;99.90;;;;;;5073195;28;20403;-67
2022/01/05 03:32:05;;;;;;;0.33;0.33;;;4.10;99.90;;;;;;5073214;28;20192;-67
2022/01/05 03:34:32;;;;;;;0.32;0.32;;;4.10;99.90;;;;;;5073448;28;20211;-68
2022/01/05 03:36:59;;;;;;;0.40;0.40;;;4.30;99.90;;;;;;5073282;28;20200;-68
2022/01/05 03:39:25;;;;;;;0.40;0.40;;;4.10;99.90;;;;;;5073046;28;20538;-68
2022/01/05 03:41:51;;;;;;;0.40;0.40;;;4.00;99.90;;;;;;5073304;28;20177;-68
2022/01/05 03:44:17;;;;;;;0.40;0.40;;;4.10;99.90;;;;;;5073240;28;20168;-68
2022/01/05 03:46:42;;;;;;;0.40;0.40;;;4.40;99.90;;;;;;5073068;28;20589;-67
2022/01/05 03:49:08;;;;;;;0.30;0.30;;;4.20;99.90;;;;;;5073198;28;20522;-68
2022/01/05 03:51:34;;;;;;;0.30;0.30;;;4.20;99.90;;;;;;5073318;28;20635;-68
2022/01/05 03:53:59;;;;;;;0.40;0.40;;;4.30;99.90;;;;;;5073225;28;20572;-67
2022/01/05 03:56:25;;;;;;;0.40;0.40;;;4.30;99.90;;;;;;5072973;28;20197;-67
2022/01/05 03:58:51;;;;;;;0.30;0.30;;;4.20;99.90;;;;;;5072744;28;20757;-67
2022/01/05 04:01:16;;;;;;;0.30;0.30;;;4.10;99.90;;;;;;5073088;28;20173;-68
2022/01/05 04:03:42;;;;;;;0.30;0.30;;;4.20;99.90;;;;;;5072953;28;20579;-68
2022/01/05 04:06:08;;;;;;;0.40;0.40;;;4.10;99.90;;;;;;5076777;28;20190;-68
2022/01/05 04:08:33;;;;;;;0.30;0.30;;;4.30;99.90;;;;;;5076681;28;20542;-68
2022/01/05 04:10:59;;;;;;;0.40;0.40;;;4.40;99.90;;;;;;5076862;28;20170;-67
2022/01/05 04:13:25;;;;;;;0.30;0.30;;;4.30;99.90;;;;;;5076692;28;20244;-68
2022/01/05 04:15:50;;;;;;;0.30;0.30;;;4.40;99.90;;;;;;5076557;28;20196;-67
2022/01/05 04:18:16;;;;;;;0.30;0.30;;;4.10;99.90;;;;;;5076420;28;20454;-68
2022/01/05 04:20:42;;;;;;;0.40;0.40;;;4.10;99.90;;;;;;5076683;28;20245;-67
2022/01/05 04:23:08;;;;;;;0.40;0.40;;;4.20;99.90;;;;;;5076750;28;20223;-68
2022/01/05 04:25:33;;;;;;;0.40;0.40;;;4.30;99.90;;;;;;5076628;28;20642;-68
2022/01/05 04:28:01;;;;;;;0.30;0.30;;;4.40;99.90;;;;;;5076246;28;20403;-68
2022/01/05 04:30:27;;;;;;;0.30;0.30;;;4.40;99.90;;;;;;5076401;28;20173;-68
2022/01/05 04:32:53;;;;;;;0.30;0.30;;;4.40;99.90;;;;;;5076775;28;20184;-68
2022/01/05 04:35:18;;;;;;;0.30;0.30;;;4.50;99.90;;;;;;5076297;28;20197;-68
2022/01/05 04:37:44;;;;;;;0.30;0.30;;;4.60;99.90;;;;;;5076176;28;20189;-68
2022/01/05 04:40:11;;;;;;;0.40;0.40;;;4.60;99.90;;;;;;5076246;28;20173;-68
2022/01/05 04:42:37;;;;;;;0.30;0.30;;;4.70;99.90;;;;;;5076419;28;20170;-68
2022/01/05 04:45:03;;;;;;;0.30;0.30;;;4.70;99.90;;;;;;5076300;28;20686;-68
2022/01/05 04:47:29;;;;;;;0.35;0.35;;;4.80;99.90;;;;;;5076116;28;20624;-68
2022/01/05 04:49:54;;;;;;;0.40;0.40;;;4.90;99.90;;;;;;5075927;28;20256;-68
2022/01/05 04:52:20;;;;;;;0.30;0.30;;;4.50;99.90;;;;;;5076270;28;20181;-68
2022/01/05 04:54:46;;;;;;;0.40;0.40;;;4.60;99.90;;;;;;5075923;28;20192;-67
2022/01/05 04:57:14;;;;;;;0.40;0.40;;;4.50;99.90;;;;;;5076123;28;20578;-67
2022/01/05 04:59:39;;;;;;;0.30;0.30;;;4.30;99.90;;;;;;5075531;28;20268;-68
2022/01/05 05:02:05;;;;;;;0.40;0.40;;;4.30;99.90;;;;;;5076003;28;20593;-67
2022/01/05 05:04:30;;;;;;;0.40;0.40;;;4.40;99.90;;;;;;5075902;28;20572;-68
2022/01/05 05:06:56;;;;;;;0.40;0.40;;;4.40;99.90;;;;;;5075952;28;20184;-68
2022/01/05 05:09:22;;;;;;;0.40;0.40;;;4.50;99.90;;;;;;5075525;28;20169;-67
2022/01/05 05:11:47;;;;;;;0.40;0.40;;;4.30;99.90;;;;;;5075644;28;20178;-68
2022/01/05 05:14:13;;;;;;;0.30;0.30;;;4.30;99.90;;;;;;5075675;28;20208;-68
2022/01/05 05:16:39;;;;;;;0.30;0.30;;;4.40;99.90;;;;;;5074465;28;20202;-67
2022/01/05 05:19:04;;;;;;;0.40;0.40;;;4.40;99.90;;;;;;5075441;28;20169;-67
2022/01/05 05:21:30;;;;;;;0.40;0.40;;;4.40;99.90;;;;;;5075706;28;20600;-68
2022/01/05 05:23:56;;;;;;;0.40;0.40;;;4.40;99.90;;;;;;5075573;28;20200;-68
2022/01/05 05:26:21;;;;;;;0.40;0.40;;;4.40;99.90;;;;;;5075307;28;20193;-67
2022/01/05 05:28:47;;;;;;;0.40;0.40;;;4.50;99.90;;;;;;5075211;28;20166;-68
2022/01/05 05:31:13;;;;;;;0.30;0.30;;;4.20;99.90;;;;;;5075525;28;20173;-68
2022/01/05 05:33:39;;;;;;;0.40;0.40;;;4.00;99.90;;;;;;5075373;28;20204;-67
2022/01/05 05:36:05;;;;;;;0.40;0.40;;;3.90;99.90;;;;;;5075254;28;20264;-67
2022/01/05 05:38:31;;;;;;;0.35;0.35;;;4.00;99.90;;;;;;5075117;28;20170;-67
2022/01/05 05:40:57;;;;;;;0.30;0.30;;;4.10;99.90;;;;;;5075177;28;20201;-68
2022/01/05 05:43:22;;;;;;;0.30;0.30;;;4.20;99.90;;;;;;5075124;28;20269;-68
2022/01/05 05:45:48;;;;;;;0.30;0.30;;;4.20;99.90;;;;;;5075069;28;20670;-67
2022/01/05 05:48:14;;;;;;;0.30;0.30;;;4.40;99.90;;;;;;5075104;28;20169;-68
2022/01/05 05:50:39;;;;;;;0.30;0.30;;;4.50;99.90;;;;;;5075048;28;20229;-67
2022/01/05 05:53:06;;;;;;;0.33;0.33;;;4.50;99.90;;;;;;5074856;28;20177;-67
2022/01/05 05:55:31;;;;;;;0.30;0.30;;;4.50;99.90;;;;;;5073814;28;20828;-68
2022/01/05 05:57:57;;;;;;;0.30;0.30;;;4.60;99.90;;;;;;5073349;28;20205;-67
2022/01/05 06:00:23;;;;;;;0.40;0.40;;;4.70;99.90;;;;;;5074170;28;20901;-68
2022/01/05 06:02:49;;;;;;;0.40;0.40;;;4.80;99.90;;;;;;5074662;28;20261;-68
2022/01/05 06:05:15;;;;;;;0.40;0.40;;;4.90;99.90;;;;;;5074359;28;20214;-67
2022/01/05 06:07:40;;;;;;;0.40;0.40;;;4.90;99.90;;;;;;5073472;28;20408;-68
2022/01/05 06:10:06;;;;;;;0.30;0.30;;;4.90;99.90;;;;;;5074236;28;20410;-67
2022/01/05 06:12:32;;;;;;;0.35;0.35;;;4.80;99.90;;;;;;5074432;28;20256;-67
2022/01/05 06:15:00;;;;;;;0.40;0.40;;;4.70;99.90;;;;;;5074305;28;20659;-68
2022/01/05 06:17:26;;;;;;;0.40;0.40;;;4.60;99.90;;;;;;5074307;28;20219;-68
2022/01/05 06:19:52;;;;;;;0.40;0.40;;;4.70;99.90;;;;;;5073069;28;20638;-68
2022/01/05 06:22:19;;;;;;;0.40;0.40;;;4.70;99.90;;;;;;5074419;28;20392;-68
2022/01/05 06:24:45;;;;;;;0.30;0.30;;;4.80;99.60;;;;;;5074294;28;20784;-68
2022/01/05 06:27:11;;;;;;;0.30;0.30;;;4.70;99.20;;;;;;5073903;28;20177;-67
2022/01/05 06:29:38;;;;;;;0.35;0.35;;;4.70;98.80;;;;;;5074064;28;20185;-68
2022/01/05 06:32:05;;;;;;;0.30;0.30;;;4.70;98.60;;;;;;5074259;28;20234;-68
2022/01/05 06:34:31;;;;;;;0.30;0.30;;;4.60;98.60;;;;;;5073870;28;20162;-68
2022/01/05 06:36:56;;;;;;;0.40;0.40;;;4.60;98.50;;;;;;5073853;28;20698;-68
2022/01/05 06:39:22;;;;;;;0.30;0.30;;;4.60;98.50;;;;;;5073750;28;20197;-67
2022/01/05 06:41:47;;;;;;;0.30;0.30;;;4.60;98.50;;;;;;5073904;28;20240;-68
2022/01/05 06:44:13;;;;;;;0.30;0.30;;;4.60;98.80;;;;;;5073952;28;20578;-68
2022/01/05 06:46:39;;;;;;;0.30;0.30;;;4.60;98.70;;;;;;5073819;28;20335;-68
2022/01/05 06:49:05;;;;;;;0.37;0.37;;;4.80;98.80;;;;;;5073635;28;20275;-67
2022/01/05 06:51:32;;;;;;;0.40;0.40;;;4.80;98.50;;;;;;5073606;28;20216;-67
2022/01/05 06:54:00;;;;;;;0.38;0.38;;;4.80;98.50;;;;;;5073682;28;20550;-67
2022/01/05 06:56:26;;;;;;;0.30;0.30;;;4.80;98.50;;;;;;5073374;28;20199;-68
2022/01/05 06:58:51;;;;;;;0.40;0.40;;;4.60;98.60;;;;;;5064741;28;20189;-67
2022/01/05 07:01:17;;;;;;;0.40;0.40;;;4.60;98.80;;;;;;5065402;28;20416;-68
2022/01/05 07:03:43;;;;;;;0.30;0.30;;;4.70;98.90;;;;;;5071874;28;20411;-68
2022/01/05 07:06:08;;;;;;;0.40;0.40;;;4.70;98.30;;;;;;5073446;28;20192;-68
2022/01/05 07:08:34;;;;;;;0.30;0.30;;;4.60;98.30;;;;;;5073338;28;20619;-68
2022/01/05 07:10:59;;;;;;;0.33;0.33;;;4.50;98.40;;;;;;5073507;28;20211;-68
2022/01/05 07:13:25;;;;;;;0.30;0.30;;;4.50;98.30;;;;;;5073451;28;20173;-68
2022/01/05 07:15:51;;;;;;;0.30;0.30;;;4.50;98.50;;;;;;5073478;28;20188;-68
2022/01/05 07:18:16;;;;;;;0.40;0.40;;;4.60;98.60;;;;;;5073358;28;20201;-67
2022/01/05 07:20:42;;;;;;;0.30;0.30;;;4.60;98.50;;;;;;5073521;28;20559;-70
2022/01/05 07:23:11;;;;;;;0.30;0.30;;;4.40;97.90;;;;;;5073396;28;20176;-68
2022/01/05 07:25:37;;;;;;;0.30;0.30;;;4.30;97.70;;;;;;5073293;28;20200;-68
2022/01/05 07:28:03;;;;;;;0.30;0.30;;;4.40;98.00;;;;;;5071997;28;20173;-68
2022/01/05 07:30:29;;;;;;;0.30;0.30;;;4.30;97.80;;;;;;5073543;28;20175;-68
2022/01/05 07:32:54;;;;;;;0.40;0.40;;;3.80;97.20;;;;;;5073493;28;20174;-68
2022/01/05 07:35:21;;;;;;;0.30;0.30;;;3.50;98.10;;;;;;5073283;28;20196;-68
2022/01/05 07:37:47;;;;;;;0.30;0.30;;;3.60;98.40;;;;;;5073052;28;20821;-68
2022/01/05 07:40:14;;;;;;;0.40;0.40;;;3.90;98.70;;;;;;5075741;28;20175;-68
2022/01/05 07:42:40;;;;;;;0.40;0.40;;;4.10;98.50;;;;;;5077474;28;20216;-68
2022/01/05 07:45:09;;;;;;;0.30;0.30;;;4.20;98.20;;;;;;5077136;28;20200;-68
2022/01/05 07:47:36;;;;;;;0.30;0.30;;;4.20;97.40;;;;;;5077074;28;20165;-68
2022/01/05 07:50:03;;;;;;;0.30;0.30;;;4.00;96.70;;;;;;5077038;28;20213;-68
2022/01/05 07:52:29;;;;;;;0.40;0.40;;;4.00;97.10;;;;;;5077323;28;20174;-68
2022/01/05 07:54:55;;;;;;;0.30;0.30;;;3.90;97.50;;;;;;5077174;28;20189;-68
2022/01/05 07:57:21;;;;;;;0.30;0.30;;;4.10;97.30;;;;;;5076737;28;20670;-68
2022/01/05 07:59:46;;;;;;;0.37;0.37;;;4.10;97.30;;;;;;5076829;28;20419;-68
2022/01/05 08:02:12;;;;;;;0.40;0.40;;;4.20;97.30;;;;;;5076902;28;20189;-68
2022/01/05 08:04:38;;;;;;;0.30;0.30;;;4.20;97.30;;;;;;5077184;28;20173;-68
2022/01/05 08:07:04;;;;;;;0.40;0.40;;;4.10;97.40;;;;;;5076741;28;20568;-68
2022/01/05 08:09:30;;;;;;;0.30;0.30;;;4.00;97.50;;;;;;5076713;28;20169;-68
2022/01/05 08:11:59;;;;;;;0.40;0.40;;;4.10;97.50;;;;;;5076701;28;20174;-68
2022/01/05 08:14:24;;;;;;;0.40;0.40;;;4.10;97.50;;;;;;5076804;28;20184;-68
2022/01/05 08:16:50;;;;;;;0.30;0.30;;;4.10;97.60;;;;;;5076522;28;20192;-68
2022/01/05 08:19:16;;;;;;;0.30;0.30;;;4.20;97.40;;;;;;5076431;28;20177;-68
2022/01/05 08:21:41;;;;;;;0.30;0.30;;;4.20;96.80;;;;;;5076525;28;20542;-68
2022/01/05 08:24:07;;;;;;;0.40;0.40;;;4.10;96.20;;;;;;5076574;28;20173;-68
2022/01/05 08:26:33;;;;;;;0.30;0.30;;;3.90;95.70;;;;;;5076416;28;20192;-68
2022/01/05 08:28:59;;;;;;;0.40;0.40;;;4.10;95.60;;;;;;5076238;28;20566;-68
2022/01/05 08:31:24;;;;;;;0.40;0.40;;;4.00;94.80;;;;;;5076248;28;20184;-68
2022/01/05 08:33:50;;;;;;;0.40;0.40;;;4.00;95.00;;;;;;5076231;28;20898;-68
2022/01/05 08:36:16;;;;;;;0.30;0.30;;;4.10;95.20;;;;;;5076237;28;20258;-68
2022/01/05 08:38:42;;;;;;;0.40;0.40;;;4.00;93.90;;;;;;5076202;28;20170;-68
2022/01/05 08:41:07;;;;;;;0.30;0.30;;;4.00;94.10;;;;;;5076331;28;20615;-68
2022/01/05 08:43:33;;;;;;;0.30;0.30;;;4.10;94.20;;;;;;5076323;28;20411;-68
2022/01/05 08:46:00;;;;;;;0.30;0.30;;;4.30;94.40;;;;;;5076125;28;20197;-68
2022/01/05 08:48:26;;;;;;;0.40;0.40;;;4.30;94.40;;;;;;5074535;28;20478;-68
2022/01/05 08:50:52;;;;;;;0.40;0.40;;;4.20;93.10;;;;;;5074677;28;20205;-68
2022/01/05 08:53:19;;;;;;;0.38;0.38;;;4.10;92.40;;;;;;5075968;28;20635;-68
2022/01/05 08:55:47;;;;;;;0.40;0.40;;;4.00;92.00;;;;;;5075930;28;20218;-68
2022/01/05 08:58:16;;;;;;;0.32;0.32;;;4.40;92.20;;;;;;5075499;28;20189;-68
2022/01/05 09:00:41;;;;;;;0.40;0.40;;;3.70;92.30;;;;;;5076033;28;20322;-68
2022/01/05 09:03:09;;;;;;;0.30;0.30;;;3.60;92.80;;;;;;5075972;28;20203;-68
2022/01/05 09:05:35;;;;;;;0.40;0.40;;;3.70;92.70;;;;;;5075842;28;20514;-68
2022/01/05 09:08:02;;;;;;;0.30;0.30;;;3.80;91.80;;;;;;5075597;28;20653;-68
2022/01/05 09:10:29;;;;;;;0.30;0.30;;;3.80;91.70;;;;;;5075813;28;20260;-68
2022/01/05 09:12:56;;;;;;;0.40;0.40;;;3.80;92.20;;;;;;5075809;28;20258;-68
2022/01/05 09:15:22;;;;;;;0.40;0.40;;;3.70;92.40;;;;;;5075615;28;20213;-68
2022/01/05 09:17:48;;;;;;;0.30;0.30;;;3.70;91.90;;;;;;5075549;28;20568;-68
2022/01/05 09:20:14;;;;;;;0.30;0.30;;;3.70;92.10;;;;;;5075431;28;20161;-68
2022/01/05 09:22:40;;;;;;;0.40;0.40;;;3.70;91.70;;;;;;5075595;28;20650;-68
2022/01/05 09:25:09;;;;;;;0.30;0.30;;;3.60;92.00;;;;;;5073969;28;20852;-68
2022/01/05 09:27:37;;;;;;;0.30;0.30;;;3.40;91.70;;;;;;5075218;28;20187;-68
2022/01/05 09:30:04;;;;;;;0.30;0.30;;;3.10;92.20;;;;;;5075118;28;20179;-68
2022/01/05 09:32:30;;;;;;;0.30;0.30;;;3.20;92.50;;;;;;5075293;28;20234;-68
2022/01/05 09:34:56;;;;;;;0.30;0.30;;;3.30;92.50;;;;;;5075126;28;20181;-68
2022/01/05 09:37:26;;;;;;;0.40;0.40;;;3.60;93.20;;;;;;5075015;28;20201;-68
2022/01/05 09:42:39;;;;;;;0.40;0.40;;;5.30;88.90;;;;;;5075320;28;20179;-68
2022/01/05 09:45:21;;;;;;;0.40;0.40;;;6.60;85.50;;;;;;5074825;28;20236;-68
2022/01/05 09:48:14;;;;;;;0.30;0.30;;;9.00;80.70;;;;;;5074759;28;20169;-68
2022/01/05 09:50:47;;;;;;;0.30;0.30;;;11.40;68.40;;;;;;5075058;28;20181;-68
2022/01/05 09:53:14;;;;;;;0.30;0.30;;;13.40;59.80;;;;;;5074970;28;20178;-69
2022/01/05 09:55:40;;;;;;;0.30;0.30;;;14.60;50.80;;;;;;5074700;28;20190;-68
2022/01/05 09:58:06;;;;;;;0.30;0.30;;;15.30;48.50;;;;;;5074413;28;20205;-69
2022/01/05 10:00:32;;;;;;;0.30;0.30;;;15.10;47.00;;;;;;5075059;28;20639;-69
2022/01/05 10:02:57;;;;;;;0.40;0.40;;;15.30;46.80;;;;;;5074370;28;20162;-68
2022/01/05 10:05:24;;;;;;;0.30;0.30;;;15.20;47.20;;;;;;5074550;28;20231;-69
2022/01/05 10:07:50;;;;;;;0.30;0.30;;;15.20;44.00;;;;;;5070873;28;20166;-69
2022/01/05 10:10:15;;;;;;;0.30;0.30;;;15.00;47.60;;;;;;5074382;28;20417;-68
2022/01/05 10:12:41;;;;;;;0.30;0.30;;;15.50;46.70;;;;;;5073724;28;20226;-69
2022/01/05 10:15:07;;;;;;;0.30;0.30;;;15.70;44.60;;;;;;5073081;28;20191;-69
2022/01/05 10:17:36;;;;;;;0.30;0.30;;;16.00;42.40;;;;;;5074928;28;20646;-69
2022/01/05 10:20:07;;;;;;;0.30;0.30;;;15.70;44.40;;;;;;5074191;28;20403;-69
2022/01/05 10:22:44;;;;;;;0.30;0.30;;;14.50;42.80;;;;;;5074776;28;20533;-69
2022/01/05 10:25:20;;;;;;;0.40;0.40;;;13.20;45.50;;;;;;5074451;28;20411;-69
2022/01/05 10:27:56;;;;;;;0.30;0.30;;;12.30;46.50;;;;;;5074820;28;20399;-68
2022/01/05 10:30:36;;;;;;;0.30;0.30;;;12.60;49.00;;;;;;5074854;28;20204;-66
2022/01/05 10:33:03;;;;;;;0.30;0.30;;;13.60;47.60;;;;;;5073526;28;20473;-66
2022/01/05 10:35:29;;;;;;;0.40;0.40;;;14.00;46.50;;;;;;5073981;28;20534;-66
2022/01/05 10:38:03;;;;;;;0.30;0.30;;;13.90;44.40;;;;;;5073616;28;20610;-66
2022/01/05 10:40:33;;;;;;;0.30;0.30;;;13.60;45.10;;;;;;5073789;28;20161;-66
2022/01/05 10:42:59;;;;;;;0.37;0.37;;;13.70;45.00;;;;;;5074044;28;20461;-66
2022/01/05 10:45:25;;;;;;;0.40;0.40;;;13.40;44.50;;;;;;5073783;28;20480;-66
2022/01/05 10:48:02;;;;;;;0.40;0.40;;;13.00;47.30;;;;;;5073826;28;20434;-66
2022/01/05 10:50:28;;;;;;;0.30;0.30;;;13.00;46.70;;;;;;5073811;28;20180;-66
2022/01/05 10:52:58;;;;;;;0.30;0.30;;;12.40;46.10;;;;;;5073719;28;20412;-65
2022/01/05 10:55:26;;;;;;;0.30;0.30;;;12.20;47.80;;;;;;5073864;28;20192;-66
2022/01/05 10:58:08;;;;;;;0.30;0.30;;;11.80;46.60;;;;;;5073741;28;20204;-65
2022/01/05 11:00:42;;;;;;;0.30;0.30;;;10.90;48.40;;;;;;5072353;28;20178;-65
2022/01/05 11:03:28;;;;;;;0.30;0.30;;;9.60;51.60;;;;;;5073742;28;20222;-66
2022/01/05 11:06:06;;;;;;;0.30;0.30;;;8.70;51.70;;;;;;5073659;28;20182;-65
2022/01/05 11:08:33;;;;;;;0.30;0.30;;;7.90;53.10;;;;;;5073374;28;20268;-68
2022/01/05 11:11:00;;;;;;;0.40;0.40;;;7.40;55.00;;;;;;5073789;28;20179;-68
2022/01/05 11:13:27;;;;;;;0.40;0.40;;;7.30;57.10;;;;;;5073649;28;20233;-68
2022/01/05 11:15:59;;;;;;;0.40;0.40;;;7.50;57.00;;;;;;5073456;28;20275;-68
2022/01/05 11:18:30;;;;;;;0.38;0.38;;;7.60;57.70;;;;;;5073242;28;20253;-68
2022/01/05 11:21:03;;;;;;;0.40;0.40;;;7.70;56.40;;;;;;5073475;28;20177;-68
2022/01/05 11:23:31;;;;;;;0.38;0.38;;;7.40;56.40;;;;;;5073491;28;20163;-68
2022/01/05 11:26:00;;;;;;;0.40;0.40;;;7.10;59.00;;;;;;5073209;28;20556;-68
2022/01/05 11:28:28;;;;;;;0.40;0.40;;;7.00;58.60;;;;;;5073240;28;20170;-68
2022/01/05 11:30:56;;;;;;;0.40;0.40;;;6.70;57.10;;;;;;5073306;28;20259;-68
2022/01/05 11:33:23;;;;;;;0.40;0.40;;;6.30;58.40;;;;;;5073513;28;20632;-68
2022/01/05 11:35:50;;;;;;;0.40;0.40;;;6.30;60.90;;;;;;5072980;28;20204;-68
2022/01/05 11:38:17;;;;;;;0.38;0.38;;;6.20;58.90;;;;;;5073159;28;20689;-68
2022/01/05 11:40:52;;;;;;;0.40;0.40;;;6.20;60.00;;;;;;5073245;28;20189;-68
2022/01/05 11:43:32;;;;;;;0.40;0.40;;;6.20;59.70;;;;;;5073340;28;20523;-68
2022/01/05 11:46:16;;;;;;;0.38;0.38;;;6.20;60.50;;;;;;5073128;28;20590;-68
2022/01/05 11:49:02;;;;;;;0.40;0.40;;;5.90;60.00;;;;;;5073096;28;20197;-68
2022/01/05 11:51:41;;;;;;;0.40;0.40;;;5.70;61.30;;;;;;5073278;28;20523;-68
2022/01/05 11:54:17;;;;;;;0.40;0.40;;;5.20;60.90;;;;;;5073548;28;20209;-68
2022/01/05 11:56:48;;;;;;;0.40;0.40;;;4.90;63.10;;;;;;5073017;28;20277;-68
2022/01/05 11:59:33;;;;;;;0.30;0.30;;;4.60;63.70;;;;;;5072756;28;20189;-68
2022/01/05 12:02:12;;;;;;;0.40;0.40;;;4.80;65.00;;;;;;5072804;28;20189;-68
2022/01/05 12:04:55;;;;;;;0.40;0.40;;;5.20;65.70;;;;;;5073035;28;20168;-68
2022/01/05 12:07:43;;;;;;;0.30;0.30;;;5.60;65.00;;;;;;5072972;28;20165;-68
2022/01/05 12:10:23;;;;;;;0.40;0.40;;;4.90;64.40;;;;;;5071693;28;20663;-68
2022/01/05 12:13:07;;;;;;;0.40;0.40;;;4.60;68.80;;;;;;5073152;28;20165;-68
2022/01/05 12:15:38;;;;;;;0.40;0.40;;;4.40;66.20;;;;;;5072890;28;20201;-68
2022/01/05 12:18:05;;;;;;;0.38;0.38;;;4.40;67.50;;;;;;5072559;28;20279;-68
2022/01/05 12:20:36;;;;;;;0.40;0.40;;;4.40;66.70;;;;;;5072859;28;20173;-68
2022/01/05 12:23:25;;;;;;;0.30;0.30;;;4.40;68.20;;;;;;5073216;28;20530;-68
2022/01/05 12:26:02;;;;;;;0.40;0.40;;;4.40;69.10;;;;;;5074306;28;20199;-68
2022/01/05 12:28:50;;;;;;;0.40;0.40;;;4.00;68.80;;;;;;5076260;28;20251;-68
2022/01/05 12:31:15;;;;;;;0.40;0.40;;;3.50;69.60;;;;;;5076930;28;20176;-68
2022/01/05 12:33:54;;;;;;;0.30;0.30;;;3.40;70.60;;;;;;5076339;28;20165;-68
2022/01/05 12:36:37;;;;;;;0.40;0.40;;;3.30;72.60;;;;;;5076317;28;20191;-68
2022/01/05 12:39:07;;;;;;;0.32;0.32;;;3.40;76.40;;;;;;5076092;28;20221;-68
2022/01/05 12:41:37;;;;;;;0.30;0.30;;;3.20;72.30;;;;;;5076297;28;20259;-67
2022/01/05 12:44:23;;;;;;;0.30;0.30;;;3.00;76.20;;;;;;5076406;28;20661;-68
2022/01/05 12:46:52;;;;;;;0.30;0.30;;;2.60;77.90;;;;;;5075473;28;20211;-68
2022/01/05 12:49:28;;;;;;;0.38;0.38;;;2.70;79.70;;;;;;5075892;28;20206;-68
2022/01/05 12:52:01;;;;;;;0.38;0.38;;;2.90;81.90;;;;;;5076079;28;20171;-68
2022/01/05 12:54:30;;;;;;;0.40;0.40;;;3.10;83.60;;;;;;5076226;28;20164;-68
2022/01/05 12:56:57;;;;;;;0.30;0.30;;;3.30;86.00;;;;;;5076058;28;20202;-68
2022/01/05 12:59:35;;;;;;;0.40;0.40;;;3.60;87.40;;;;;;5075688;28;20191;-68